createdAt,value
2019-05-09T00:02:10.468Z,98881.16
2019-05-09T00:04:40.060Z,98885.09
2019-05-09T00:07:09.618Z,98889.79
2019-05-09T00:09:39.084Z,98891.52
2019-05-09T00:12:08.564Z,98894.81
2019-05-09T00:14:38.036Z,98889.86
2019-05-09T00:17:07.661Z,98898.69
2019-05-09T00:19:37.186Z,98899.05
2019-05-09T00:22:06.807Z,98905.11
2019-05-09T00:24:36.295Z,98905.47
2019-05-09T00:27:05.916Z,98900.09
2019-05-09T00:29:46.156Z,98901.42
2019-05-09T00:32:35.466Z,98894.09
2019-05-09T00:35:13.964Z,98898.78
2019-05-09T00:37:59.400Z,98903.84
2019-05-09T00:40:28.963Z,98910.71
2019-05-09T00:42:58.489Z,98909.88
2019-05-09T00:45:45.638Z,98909.02
2019-05-09T00:48:16.744Z,98914.33
2019-05-09T00:50:46.221Z,98912.74
2019-05-09T00:53:15.684Z,98915.48
2019-05-09T00:55:45.297Z,98911.91
2019-05-09T00:58:14.783Z,98913.08
2019-05-09T01:00:44.427Z,98912.88
2019-05-09T01:03:14.338Z,98911.08
2019-05-09T01:05:47.233Z,98909.08
2019-05-09T01:08:15.156Z,98912.59
2019-05-09T01:10:44.646Z,98906.45
2019-05-09T01:13:14.309Z,98909.55
2019-05-09T01:15:44.392Z,98904.58
2019-05-09T01:18:13.872Z,98906.50
2019-05-09T01:20:44.076Z,98902.48
2019-05-09T01:23:14.263Z,98898.53
2019-05-09T01:25:44.054Z,98902.61
2019-05-09T01:28:14.052Z,98904.17
2019-05-09T01:30:43.980Z,98904.33
2019-05-09T01:33:20.790Z,98900.38
2019-05-09T01:35:50.281Z,98908.42
2019-05-09T01:38:19.738Z,98908.01
2019-05-09T01:40:49.243Z,98907.73
2019-05-09T01:43:18.707Z,98901.81
2019-05-09T01:45:48.227Z,98905.67
2019-05-09T01:48:17.821Z,98895.41
2019-05-09T01:50:47.271Z,98897.53
2019-05-09T01:53:18.396Z,98902.62
2019-05-09T01:56:00.686Z,98905.76
2019-05-09T01:58:34.342Z,98899.45
2019-05-09T02:01:06.055Z,98897.65
2019-05-09T02:03:35.675Z,98905.70
2019-05-09T02:06:05.756Z,98904.32
2019-05-09T02:08:35.244Z,98902.73
2019-05-09T02:11:04.924Z,98898.60
2019-05-09T02:13:34.472Z,98900.37
2019-05-09T02:16:15.754Z,98893.28
2019-05-09T02:18:46.886Z,98887.91
2019-05-09T02:21:16.358Z,98882.20
2019-05-09T02:23:45.846Z,98879.23
2019-05-09T02:26:15.336Z,98881.78
2019-05-09T02:28:44.957Z,98877.05
2019-05-09T02:31:16.247Z,98884.14
2019-05-09T02:33:46.068Z,98868.44
2019-05-09T02:36:18.724Z,98864.87
2019-05-09T02:38:48.788Z,98871.19
2019-05-09T02:41:19.587Z,98866.25
2019-05-09T02:43:49.977Z,98873.94
2019-05-09T02:46:19.521Z,98860.17
2019-05-09T02:48:49.642Z,98866.10
2019-05-09T02:51:19.351Z,98867.89
2019-05-09T02:53:48.907Z,98861.61
2019-05-09T02:56:19.142Z,98862.18
2019-05-09T02:58:50.376Z,98867.69
2019-05-09T03:01:39.152Z,98865.33
2019-05-09T03:04:08.907Z,98862.93
2019-05-09T03:06:39.154Z,98867.95
2019-05-09T03:09:09.211Z,98862.62
2019-05-09T03:11:39.149Z,98871.00
2019-05-09T03:14:09.313Z,98865.82
2019-05-09T03:16:39.935Z,98864.77
2019-05-09T03:19:09.635Z,98864.28
2019-05-09T03:21:40.775Z,98862.42
2019-05-09T03:24:10.385Z,98859.98
2019-05-09T03:26:41.456Z,98860.52
2019-05-09T03:29:12.589Z,98863.02
2019-05-09T03:31:43.428Z,98853.11
2019-05-09T03:34:12.952Z,98855.02
2019-05-09T03:36:42.528Z,98853.01
2019-05-09T03:39:12.006Z,98843.52
2019-05-09T03:41:41.467Z,98843.91
2019-05-09T03:44:11.098Z,98848.98
2019-05-09T03:46:42.983Z,98843.06
2019-05-09T03:49:14.091Z,98839.15
2019-05-09T03:51:43.571Z,98841.30
2019-05-09T03:54:13.033Z,98843.70
2019-05-09T03:56:50.102Z,98833.69
2019-05-09T03:59:19.573Z,98837.45
2019-05-09T04:01:50.333Z,98843.37
2019-05-09T04:04:20.006Z,98844.02
2019-05-09T04:06:49.503Z,98841.69
2019-05-09T04:09:19.021Z,98836.82
2019-05-09T04:11:48.685Z,98845.50
2019-05-09T04:14:28.615Z,98832.38
2019-05-09T04:16:58.149Z,98836.92
2019-05-09T04:19:27.761Z,98840.73
2019-05-09T04:21:57.731Z,98837.23
2019-05-09T04:24:28.932Z,98838.08
2019-05-09T04:27:07.774Z,98843.44
2019-05-09T04:29:37.443Z,98847.84
2019-05-09T04:32:07.959Z,98843.53
2019-05-09T04:34:38.190Z,98850.05
2019-05-09T04:37:08.487Z,98843.59
2019-05-09T04:39:40.688Z,98848.91
2019-05-09T04:42:10.361Z,98852.69
2019-05-09T04:44:49.859Z,98848.02
2019-05-09T04:47:18.373Z,98843.14
2019-05-09T04:49:48.055Z,98849.85
2019-05-09T04:52:20.643Z,98848.32
2019-05-09T04:54:50.172Z,98853.08
2019-05-09T04:57:19.622Z,98859.00
2019-05-09T04:59:49.088Z,98862.39
2019-05-09T05:02:27.675Z,98857.09
2019-05-09T05:04:58.514Z,98856.94
2019-05-09T05:07:28.803Z,98859.70
2019-05-09T05:09:58.408Z,98856.34
2019-05-09T05:12:27.918Z,98856.77
2019-05-09T05:14:58.077Z,98855.39
2019-05-09T05:17:28.282Z,98861.52
2019-05-09T05:19:59.917Z,98856.07
2019-05-09T05:25:28.415Z,98855.95
2019-05-09T05:27:58.234Z,98852.59
2019-05-09T05:30:28.413Z,98862.44
2019-05-09T05:32:59.612Z,98860.86
2019-05-09T05:35:30.793Z,98855.34
2019-05-09T05:38:00.247Z,98860.86
2019-05-09T05:40:33.100Z,98867.95
2019-05-09T05:43:00.927Z,98867.80
2019-05-09T05:45:32.034Z,98863.73
2019-05-09T05:48:08.871Z,98864.14
2019-05-09T05:50:38.359Z,98864.35
2019-05-09T05:53:08.026Z,98867.94
2019-05-09T05:55:38.030Z,98866.59
2019-05-09T05:58:08.569Z,98868.23
2019-05-09T06:00:38.310Z,98874.94
2019-05-09T06:03:08.773Z,98873.84
2019-05-09T06:05:38.483Z,98877.85
2019-05-09T06:08:08.249Z,98876.14
2019-05-09T06:10:39.014Z,98868.13
2019-05-09T06:13:08.481Z,98864.84
2019-05-09T06:15:38.116Z,98860.57
2019-05-09T06:18:08.089Z,98863.02
2019-05-09T06:20:38.554Z,98859.72
2019-05-09T06:23:08.731Z,98867.28
2019-05-09T06:25:38.939Z,98857.48
2019-05-09T06:28:09.103Z,98855.56
2019-05-09T06:30:41.232Z,98852.50
2019-05-09T06:33:09.871Z,98860.46
2019-05-09T06:35:39.360Z,98848.30
2019-05-09T06:38:08.907Z,98851.52
2019-05-09T06:40:38.487Z,98856.92
2019-05-09T06:43:21.506Z,98857.58
2019-05-09T06:45:59.495Z,98855.47
2019-05-09T06:48:28.982Z,98860.91
2019-05-09T06:50:58.549Z,98859.02
2019-05-09T06:53:28.046Z,98857.50
2019-05-09T06:55:58.079Z,98855.17
2019-05-09T06:58:35.006Z,98850.91
2019-05-09T07:01:18.083Z,98846.98
2019-05-09T07:03:54.528Z,98847.63
2019-05-09T07:06:28.491Z,98844.88
2019-05-09T07:09:02.097Z,98849.43
2019-05-09T07:11:31.568Z,98841.95
2019-05-09T07:14:01.070Z,98839.19
2019-05-09T07:16:30.601Z,98844.53
2019-05-09T07:19:00.017Z,98841.17
2019-05-09T07:21:48.529Z,98844.73
2019-05-09T07:24:18.797Z,98843.99
2019-05-09T07:26:48.299Z,98838.08
2019-05-09T07:29:17.932Z,98829.36
2019-05-09T07:31:49.202Z,98831.14
2019-05-09T07:34:20.298Z,98827.19
2019-05-09T07:36:49.805Z,98831.52
2019-05-09T07:39:19.341Z,98836.24
2019-05-09T07:41:48.854Z,98833.23
2019-05-09T07:44:18.486Z,98833.22
2019-05-09T07:46:49.658Z,98838.31
2019-05-09T07:49:19.137Z,98837.13
2019-05-09T07:51:48.643Z,98843.25
2019-05-09T07:54:24.806Z,98843.99
2019-05-09T07:56:49.312Z,98840.56
2019-05-09T07:59:18.765Z,98842.91
2019-05-09T08:01:49.906Z,98838.09
2019-05-09T08:04:19.432Z,98837.28
2019-05-09T08:06:48.986Z,98836.27
2019-05-09T08:09:18.793Z,98836.84
2019-05-09T08:11:49.945Z,98836.80
2019-05-09T08:14:19.427Z,98824.84
2019-05-09T08:16:48.934Z,98818.27
2019-05-09T08:19:18.383Z,98816.62
2019-05-09T08:21:48.103Z,98815.56
2019-05-09T08:24:18.288Z,98818.06
2019-05-09T08:26:47.972Z,98811.66
2019-05-09T08:29:19.925Z,98807.16
2019-05-09T08:31:48.718Z,98805.25
2019-05-09T08:34:18.788Z,98807.95
2019-05-09T08:36:48.273Z,98804.73
2019-05-09T08:39:18.370Z,98802.11
2019-05-09T08:41:48.970Z,98800.85
2019-05-09T08:44:18.786Z,98797.80
2019-05-09T08:46:48.318Z,98807.48
2019-05-09T08:49:19.497Z,98802.02
2019-05-09T08:52:09.217Z,98807.03
2019-05-09T08:54:44.069Z,98799.38
2019-05-09T08:57:14.549Z,98800.39
2019-05-09T08:59:47.067Z,98797.84
2019-05-09T09:02:19.505Z,98792.55
2019-05-09T09:04:48.872Z,98797.42
2019-05-09T09:07:18.908Z,98797.31
2019-05-09T09:09:48.672Z,98800.06
2019-05-09T09:12:29.872Z,98791.45
2019-05-09T09:14:49.528Z,98795.16
2019-05-09T09:17:19.016Z,98788.16
2019-05-09T09:19:48.714Z,98792.81
2019-05-09T09:22:18.258Z,98787.52
2019-05-09T09:24:48.262Z,98786.52
2019-05-09T09:27:18.351Z,98786.30
2019-05-09T09:29:48.260Z,98791.44
2019-05-09T09:32:18.971Z,98793.79
2019-05-09T09:34:48.745Z,98792.89
2019-05-09T09:37:18.655Z,98775.67
2019-05-09T09:39:48.988Z,98776.20
2019-05-09T09:42:19.842Z,98783.53
2019-05-09T09:44:49.815Z,98781.34
2019-05-09T09:47:23.030Z,98782.67
2019-05-09T09:49:50.457Z,98781.83
2019-05-09T09:52:19.924Z,98780.11
2019-05-09T09:54:49.481Z,98779.97
2019-05-09T09:57:19.228Z,98779.11
2019-05-09T09:59:52.902Z,98785.37
2019-05-09T10:02:33.061Z,98787.63
2019-05-09T10:05:02.600Z,98784.11
2019-05-09T10:07:32.193Z,98782.18
2019-05-09T10:10:01.747Z,98785.47
2019-05-09T10:12:31.360Z,98781.78
2019-05-09T10:15:14.666Z,98786.95
2019-05-09T10:17:54.220Z,98787.98
2019-05-09T10:20:38.537Z,98782.05
2019-05-09T10:23:17.633Z,98780.23
2019-05-09T10:25:39.430Z,98784.35
2019-05-09T10:28:08.951Z,98787.41
2019-05-09T10:30:38.543Z,98792.29
2019-05-09T10:33:09.177Z,98789.00
2019-05-09T10:35:39.387Z,98794.86
2019-05-09T10:38:09.105Z,98799.52
2019-05-09T10:40:39.906Z,98800.25
2019-05-09T10:43:11.613Z,98789.81
2019-05-09T10:45:58.622Z,98800.39
2019-05-09T10:48:28.346Z,98804.02
2019-05-09T10:51:03.787Z,98799.84
2019-05-09T10:53:29.113Z,98805.95
2019-05-09T10:55:58.571Z,98806.69
2019-05-09T10:58:28.109Z,98801.86
2019-05-09T11:00:58.695Z,98800.98
2019-05-09T11:03:28.321Z,98805.81
2019-05-09T11:05:58.042Z,98803.11
2019-05-09T11:08:28.645Z,98797.02
2019-05-09T11:10:58.265Z,98802.27
2019-05-09T11:13:28.760Z,98797.17
2019-05-09T11:15:58.426Z,98791.25
2019-05-09T11:18:28.620Z,98806.05
2019-05-09T11:20:58.270Z,98798.14
2019-05-09T11:23:29.189Z,98801.30
2019-05-09T11:25:58.810Z,98797.97
2019-05-09T11:28:28.623Z,98805.61
2019-05-09T11:30:58.483Z,98801.91
2019-05-09T11:33:27.999Z,98808.41
2019-05-09T11:35:58.089Z,98810.88
2019-05-09T11:38:35.200Z,98817.11
2019-05-09T11:40:58.977Z,98821.95
2019-05-09T11:43:29.947Z,98821.02
2019-05-09T11:45:59.529Z,98821.31
2019-05-09T11:48:29.232Z,98830.91
2019-05-09T11:50:59.086Z,98830.59
2019-05-09T11:53:28.946Z,98829.86
2019-05-09T11:55:58.559Z,98836.08
2019-05-09T11:58:28.143Z,98831.72
2019-05-09T12:00:57.709Z,98831.36
2019-05-09T12:03:27.176Z,98835.97
2019-05-09T12:05:58.324Z,98834.76
2019-05-09T12:08:28.013Z,98836.88
2019-05-09T12:10:57.924Z,98837.55
2019-05-09T12:13:27.519Z,98829.41
2019-05-09T12:15:58.458Z,98826.20
2019-05-09T12:18:28.610Z,98831.89
2019-05-09T12:20:58.198Z,98832.02
2019-05-09T12:23:29.171Z,98829.53
2019-05-09T12:25:58.685Z,98835.03
2019-05-09T12:28:28.198Z,98835.79
2019-05-09T12:30:57.674Z,98839.36
2019-05-09T12:33:28.479Z,98841.19
2019-05-09T12:35:59.367Z,98836.23
2019-05-09T12:38:31.378Z,98839.59
2019-05-09T12:41:01.012Z,98841.58
2019-05-09T12:43:30.461Z,98847.27
2019-05-09T12:45:59.946Z,98847.84
2019-05-09T12:48:29.419Z,98850.13
2019-05-09T12:50:59.205Z,98847.52
2019-05-09T12:53:28.776Z,98850.56
2019-05-09T12:56:01.151Z,98848.86
2019-05-09T12:58:31.311Z,98853.93
2019-05-09T13:01:00.919Z,98855.19
2019-05-09T13:03:30.586Z,98850.83
2019-05-09T13:06:00.174Z,98866.45
2019-05-09T13:08:29.680Z,98863.59
2019-05-09T13:11:02.316Z,98868.91
2019-05-09T13:13:32.338Z,98869.26
2019-05-09T13:16:18.211Z,98871.98
2019-05-09T13:19:07.349Z,98869.29
2019-05-09T13:21:38.993Z,98873.31
2019-05-09T13:24:08.590Z,98868.66
2019-05-09T13:26:38.748Z,98876.45
2019-05-09T13:29:08.384Z,98881.88
2019-05-09T13:31:39.715Z,98880.47
2019-05-09T13:34:09.105Z,98885.37
2019-05-09T13:36:38.601Z,98888.86
2019-05-09T13:39:10.720Z,98888.23
2019-05-09T13:41:40.690Z,98885.20
2019-05-09T13:44:13.487Z,98888.94
2019-05-09T13:46:41.444Z,98890.96
2019-05-09T13:49:15.164Z,98899.34
2019-05-09T13:51:49.539Z,98898.38
2019-05-09T13:54:13.466Z,98900.81
2019-05-09T13:56:42.938Z,98910.01
2019-05-09T13:59:12.451Z,98917.88
2019-05-09T14:01:41.998Z,98916.37
2019-05-09T14:04:11.583Z,98913.14
2019-05-09T14:06:41.070Z,98916.11
2019-05-09T14:09:10.922Z,98911.34
2019-05-09T14:11:40.469Z,98925.64
2019-05-09T14:14:10.035Z,98922.98
2019-05-09T14:16:39.564Z,98928.84
2019-05-09T14:19:29.795Z,98930.50
2019-05-09T14:21:40.419Z,98939.28
2019-05-09T14:24:14.869Z,98943.30
2019-05-09T14:26:41.133Z,98947.45
2019-05-09T14:29:12.625Z,98954.78
2019-05-09T14:31:41.827Z,98951.14
2019-05-09T14:34:11.411Z,98952.92
2019-05-09T14:36:45.242Z,98958.59
2019-05-09T14:39:12.222Z,98958.10
2019-05-09T14:41:41.805Z,98964.34
2019-05-09T14:44:11.287Z,98966.59
2019-05-09T14:46:40.760Z,98972.16
2019-05-09T14:49:10.444Z,98973.97
2019-05-09T14:51:40.002Z,98971.62
2019-05-09T14:54:09.535Z,98972.64
2019-05-09T14:56:42.017Z,98977.02
2019-05-09T14:59:10.294Z,98985.73
2019-05-09T15:01:43.671Z,98985.67
2019-05-09T15:04:11.231Z,98985.40
2019-05-09T15:06:40.698Z,98997.51
2019-05-09T15:09:10.308Z,98999.27
2019-05-09T15:11:39.960Z,99001.03
2019-05-09T15:14:09.504Z,99001.39
2019-05-09T15:16:39.458Z,99001.76
2019-05-09T15:19:09.121Z,99000.71
2019-05-09T15:21:38.665Z,99006.90
2019-05-09T15:24:09.406Z,99005.52
2019-05-09T15:26:39.201Z,99001.92
2019-05-09T15:29:08.707Z,99002.33
2019-05-09T15:31:39.327Z,98999.04
2019-05-09T15:34:10.442Z,98999.58
2019-05-09T15:36:40.036Z,98994.17
2019-05-09T15:39:09.843Z,98998.72
2019-05-09T15:41:39.330Z,98992.55
2019-05-09T15:44:08.872Z,98995.52
2019-05-09T15:46:40.107Z,98996.65
2019-05-09T15:49:09.569Z,99000.61
2019-05-09T15:51:39.124Z,98995.61
2019-05-09T15:54:08.625Z,98999.98
2019-05-09T15:56:38.553Z,99003.98
2019-05-09T15:59:08.081Z,99003.63
2019-05-09T16:01:38.575Z,99010.25
2019-05-09T16:04:08.691Z,99010.44
2019-05-09T16:06:39.207Z,99016.20
2019-05-09T16:09:11.878Z,99013.77
2019-05-09T16:11:40.220Z,99018.13
2019-05-09T16:14:09.716Z,99019.70
2019-05-09T16:16:39.227Z,99014.73
2019-05-09T16:19:09.098Z,99017.66
2019-05-09T16:21:38.629Z,99018.16
2019-05-09T16:24:08.353Z,99018.19
2019-05-09T16:26:38.526Z,99024.23
2019-05-09T16:29:08.604Z,99019.66
2019-05-09T16:31:38.867Z,99024.77
2019-05-09T16:34:09.531Z,99008.95
2019-05-09T16:36:39.417Z,99007.56
2019-05-09T16:39:09.083Z,99011.64
2019-05-09T16:41:39.425Z,99006.14
2019-05-09T16:44:09.023Z,99009.56
2019-05-09T16:46:38.637Z,99024.15
2019-05-09T16:49:11.697Z,99021.19
2019-05-09T16:51:40.505Z,99015.16
2019-05-09T16:54:10.176Z,99015.14
2019-05-09T16:56:39.669Z,99020.41
2019-05-09T16:59:09.132Z,99023.69
2019-05-09T17:01:40.414Z,99019.83
2019-05-09T17:04:09.988Z,99028.47
2019-05-09T17:06:39.544Z,99032.23
2019-05-09T17:09:12.056Z,99046.66
2019-05-09T17:11:42.130Z,99043.42
2019-05-09T17:14:11.620Z,99044.78
2019-05-09T17:16:41.241Z,99047.34
2019-05-09T17:19:10.811Z,99048.31
2019-05-09T17:21:45.037Z,99051.13
2019-05-09T17:24:16.146Z,99050.88
2019-05-09T17:26:48.683Z,99058.14
2019-05-09T17:29:18.482Z,99050.19
2019-05-09T17:32:07.933Z,99055.94
2019-05-09T17:34:38.132Z,99056.77
2019-05-09T17:37:08.109Z,99057.16
2019-05-09T17:39:38.665Z,99060.79
2019-05-09T17:42:08.320Z,99064.59
2019-05-09T17:44:37.897Z,99066.36
2019-05-09T17:47:08.300Z,99061.70
2019-05-09T17:49:37.814Z,99060.28
2019-05-09T17:52:07.680Z,99054.17
2019-05-09T17:54:37.901Z,99062.55
2019-05-09T17:57:08.402Z,99074.77
2019-05-09T17:59:39.167Z,99076.85
2019-05-09T18:02:08.918Z,99083.06
2019-05-09T18:04:38.432Z,99100.70
2019-05-09T18:07:08.904Z,99101.26
2019-05-09T18:09:38.416Z,99104.13
2019-05-09T18:12:08.369Z,99111.09
2019-05-09T18:14:38.381Z,99122.13
2019-05-09T18:17:07.934Z,99118.80
2019-05-09T18:19:38.177Z,99118.78
2019-05-09T18:22:08.306Z,99121.76
2019-05-09T18:24:37.868Z,99122.28
2019-05-09T18:27:07.833Z,99125.70
2019-05-09T18:29:38.031Z,99133.17
2019-05-09T18:32:13.624Z,99129.21
2019-05-09T18:34:43.208Z,99126.45
2019-05-09T18:37:12.768Z,99134.61
2019-05-09T18:39:42.421Z,99135.77
2019-05-09T18:42:12.035Z,99153.41
2019-05-09T18:44:41.646Z,99215.77
2019-05-09T18:47:11.114Z,99222.28
2019-05-09T18:49:40.718Z,99236.17
2019-05-09T18:52:10.199Z,99235.12
2019-05-09T18:54:39.707Z,99241.62
2019-05-09T18:57:09.265Z,99252.63
2019-05-09T18:59:38.773Z,99260.42
2019-05-09T19:02:08.406Z,99259.45
2019-05-09T19:04:38.045Z,99261.03
2019-05-09T19:07:21.178Z,99272.49
2019-05-09T19:09:38.782Z,99277.22
2019-05-09T19:12:08.295Z,99281.16
2019-05-09T19:14:38.126Z,99284.27
2019-05-09T19:17:44.697Z,99296.06
2019-05-09T19:20:32.293Z,99294.82
2019-05-09T19:23:01.899Z,99301.28
2019-05-09T19:25:31.527Z,99307.36
2019-05-09T19:28:01.110Z,99305.30
2019-05-09T19:30:30.675Z,99303.46
2019-05-09T19:33:00.213Z,99314.08
2019-05-09T19:35:29.823Z,99319.58
2019-05-09T19:37:59.385Z,99322.50
2019-05-09T19:40:28.965Z,99318.09
2019-05-09T19:42:58.546Z,99321.42
2019-05-09T19:45:28.112Z,99324.30
2019-05-09T19:47:57.681Z,99316.93
2019-05-09T19:50:27.166Z,99322.01
2019-05-09T19:52:56.636Z,99327.33
2019-05-09T19:55:26.217Z,99325.69
2019-05-09T19:57:55.713Z,99331.57
2019-05-09T20:00:25.374Z,99332.33
2019-05-09T20:02:54.969Z,99339.41
2019-05-09T20:05:24.473Z,99346.51
2019-05-09T20:07:53.996Z,99347.06
2019-05-09T20:10:23.374Z,99353.36
2019-05-09T20:13:07.732Z,99357.09
2019-05-09T20:15:37.426Z,99360.61
2019-05-09T20:18:07.011Z,99362.55
2019-05-09T20:20:36.625Z,99370.42
2019-05-09T20:23:06.153Z,99380.26
2019-05-09T20:25:37.105Z,99372.92
2019-05-09T20:28:06.657Z,99379.06
2019-05-09T20:30:36.137Z,99384.14
2019-05-09T20:33:06.020Z,99379.78
2019-05-09T20:35:35.450Z,99382.14
2019-05-09T20:38:05.289Z,99389.80
2019-05-09T20:40:34.999Z,99394.70
2019-05-09T20:43:04.681Z,99390.95
2019-05-09T20:45:34.451Z,99397.23
2019-05-09T20:48:05.234Z,99398.22
2019-05-09T20:50:34.929Z,99404.14
2019-05-09T20:53:09.609Z,99414.03
2019-05-09T20:55:36.297Z,99419.55
2019-05-09T20:58:06.031Z,99416.80
2019-05-09T21:00:35.778Z,99419.77
2019-05-09T21:03:07.981Z,99423.52
2019-05-09T21:05:37.034Z,99429.86
2019-05-09T21:08:06.690Z,99426.50
2019-05-09T21:10:36.391Z,99431.06
2019-05-09T21:13:06.242Z,99437.02
2019-05-09T21:15:35.902Z,99433.89
2019-05-09T21:18:05.775Z,99446.15
2019-05-09T21:20:35.514Z,99446.56
2019-05-09T21:23:05.242Z,99451.38
2019-05-09T21:25:34.936Z,99455.73
2019-05-09T21:28:04.604Z,99452.00
2019-05-09T21:30:34.364Z,99452.99
2019-05-09T21:33:04.117Z,99457.35
2019-05-09T21:35:33.584Z,99450.08
2019-05-09T21:38:03.083Z,99462.13
2019-05-09T21:40:32.671Z,99463.93
2019-05-09T21:43:02.157Z,99465.91
2019-05-09T21:45:31.709Z,99472.23
2019-05-09T21:48:01.215Z,99471.86
2019-05-09T21:50:30.749Z,99478.78
2019-05-09T21:53:00.323Z,99480.58
2019-05-09T21:55:29.907Z,99484.73
2019-05-09T21:57:59.374Z,99483.34
2019-05-09T22:00:37.267Z,99485.30
2019-05-09T22:03:07.339Z,99495.20
2019-05-09T22:05:37.649Z,99486.89
2019-05-09T22:08:07.336Z,99487.50
2019-05-09T22:10:36.966Z,99490.27
2019-05-09T22:13:06.574Z,99488.67
2019-05-09T22:15:36.209Z,99488.88
2019-05-09T22:18:05.910Z,99494.98
2019-05-09T22:20:35.480Z,99495.59
2019-05-09T22:23:06.538Z,99496.97
2019-05-09T22:25:36.403Z,99506.44
2019-05-09T22:28:05.978Z,99510.80
2019-05-09T22:30:35.523Z,99500.70
2019-05-09T22:33:05.097Z,99506.44
2019-05-09T22:35:34.616Z,99517.29
2019-05-09T22:38:04.099Z,99508.99
2019-05-09T22:40:33.667Z,99520.05
2019-05-09T22:43:03.203Z,99518.67
2019-05-09T22:45:32.666Z,99521.44
2019-05-09T22:48:02.174Z,99518.47
2019-05-09T22:50:31.669Z,99520.20
2019-05-09T22:53:01.231Z,99521.59
2019-05-09T22:55:30.707Z,99529.31
2019-05-09T22:58:00.269Z,99527.52
2019-05-09T23:00:29.853Z,99530.84
2019-05-09T23:02:59.351Z,99532.44
2019-05-09T23:05:28.933Z,99534.22
2019-05-09T23:07:58.417Z,99532.02
2019-05-09T23:10:27.907Z,99522.73
2019-05-09T23:12:57.368Z,99526.88
2019-05-09T23:15:26.949Z,99537.73
2019-05-09T23:17:56.479Z,99538.30
2019-05-09T23:20:40.720Z,99533.16
2019-05-09T23:23:25.038Z,99535.11
2019-05-09T23:25:54.663Z,99543.80
2019-05-09T23:28:24.984Z,99544.73
2019-05-09T23:30:56.179Z,99546.86
2019-05-09T23:33:27.406Z,99538.95
2019-05-09T23:35:56.841Z,99547.61
2019-05-09T23:38:26.414Z,99547.78
2019-05-09T23:40:55.940Z,99551.50
2019-05-09T23:43:25.443Z,99552.25
2019-05-09T23:45:54.898Z,99553.78
2019-05-09T23:48:24.424Z,99553.36
2019-05-09T23:50:53.951Z,99559.27
2019-05-09T23:53:33.088Z,99559.63
2019-05-09T23:56:20.532Z,99550.91
2019-05-09T23:59:09.948Z,99553.25
